• Join FlightAware (Why Join?)
  • Login
  • US Flag 
10:25AM EDT


 

Airport Tracker/Info


-or-


 

Live Flight TrackerFlight Track Log ✈ FSR411 ✈ 18-Mar-2014 ✈ KDET - KCMI

Flight Track Log - Related Links

Times and Time Zones

All times are in EDT time to prevent confusion due to time zone crossing. See the FSR411 flight status page for this flight to view local times or setup timezone preferences in your user account.

Time Position Orientation Groundspeed Altitude Reporting Facility
EDT Latitude Longitude Course Direction KTS MPH feet Rate Location/Type
08:25AM 42.3272 -82.9264 142° Southeast 227 261 4,500  Level Cleveland Center
08:25AM 42.3083 -82.9328 194° South 261 300 5,200 3,180 Climbing Cleveland Center
08:26AM 42.2622 -82.9689 210° Southwest 258 297 7,800 3,300 Climbing Cleveland Center
08:27AM 42.1797 -83.0308 209° Southwest 280 322 11,700 3,120 Climbing Cleveland Center
08:28AM 42.1181 -83.1314 230° Southwest 344 396 14,300 3,120 Climbing Cleveland Center
08:29AM 42.0411 -83.2469 228° Southwest 386 444 18,200 3,840 Climbing Cleveland Center
08:30AM 41.9686 -83.3589 229° Southwest 392 451 22,300 3,480 Climbing Cleveland Center
08:31AM 41.8992 -83.4672 229° Southwest 384 442 25,400 1,740 Climbing Cleveland Center
08:32AM 41.8392 -83.5853 236° Southwest 400 460 26,000 240 Climbing Cleveland Center
08:33AM 41.7731 -83.7119 235° Southwest 412 474 26,000  Level Cleveland Center
08:34AM 41.7058 -83.8394 235° Southwest 415 478 26,000  Level Cleveland Center
08:35AM 41.6250 -83.9917 235° Southwest 416 479 26,000  Level Cleveland Center
08:36AM 41.5581 -84.1175 235° Southwest 416 479 26,000  Level Cleveland Center
08:37AM 41.5161 -84.1969 235° Southwest 417 480 26,000  Level Chicago Center
08:38AM 41.4494 -84.3228 235° Southwest 416 479 26,000  Level Chicago Center
08:39AM 41.3678 -84.4733 234° Southwest 416 479 26,000  Level Chicago Center
08:40AM 41.3003 -84.5994 235° Southwest 416 479 26,000  Level Chicago Center
08:41AM 41.2325 -84.7242 234° Southwest 415 478 26,000 420 Level Chicago Center
08:42AM 41.1747 -84.8547 240° Southwest 409 471 26,900 600 Climbing Chicago Center
08:44AM 41.0883 -85.1400 248° West 415 478 28,000 300 Climbing Chicago Center
08:45AM 41.0419 -85.2825 247° West 418 481 28,000  Level Chicago Center
08:46AM 40.9889 -85.4531 248° West 417 480 28,000  Level Chicago Center
08:47AM 40.9422 -85.5939 246° West 416 479 28,000  Level Chicago Center
08:48AM 40.8967 -85.7350 247° West 418 481 28,000  Level Chicago Center
08:49AM 40.8506 -85.8775 247° West 420 483 28,000  Level Chicago Center
08:50AM 40.8050 -86.0194 247° West 421 484 28,000  Level Chicago Center
08:51AM 40.7589 -86.1614 247° West 421 484 28,000 -60 Level Chicago Center
08:52AM 40.7128 -86.3028 247° West 421 484 27,900 -780 Descending Chicago Center
08:53AM 40.6636 -86.4514 246° West 414 476 26,400 -1,260 Descending Chicago Center
08:54AM 40.6186 -86.5881 247° West 410 472 25,300 -1,140 Descending Chicago Center
08:55AM 40.5647 -86.7506 246° West 408 470 24,100 -1,140 Descending Chicago Center
08:56AM 40.5206 -86.8825 246° West 400 460 23,000 -1,500 Descending Chicago Center
08:57AM 40.4775 -87.0094 246° West 387 445 21,000 -1,860 Descending Chicago Center
08:58AM 40.4339 -87.1369 246° West 385 443 19,200 -1,800 Descending Chicago Center
09:00AM 40.3911 -87.2644 246° West 385 443 17,400 -1,800 Descending Chicago Center
09:01AM 40.3481 -87.3869 245° Southwest 375 432 15,600 -1,980 Descending Chicago Center
09:02AM 40.2989 -87.5314 246° West 365 420 13,400 -1,980 Descending Chicago Center
09:03AM 40.2578 -87.6481 245° Southwest 356 410 11,600 -1,680 Descending Chicago Center
09:04AM 40.2217 -87.7531 246° West 325 374 10,000 -1,800 Descending Chicago Center
09:05AM 40.1881 -87.8511 246° West 289 333 7,900 -1,920 Descending Chicago Center
09:06AM 40.1672 -87.9422 253° West 284 327 6,100 -1,800 Descending Chicago Center
09:07AM 40.1539 -88.0461 261° West 280 322 4,200 -1,500 Descending Chicago Center
09:08AM 40.1394 -88.1394 259° West 273 314 3,100 -660 Descending Chicago Center
09:09AM 40.1253 -88.2411 260° West 266 306 2,900 -240 Descending Chicago Center
09:11AM 40.0333 -88.2667 246° West  Level FlightAware Approximate
09:18AM 40.0388 -88.2778 246° West  Level Estimated
09:19AM 40.0388 -88.2778 246° West  Level Estimated
09:20AM 40.0388 -88.2778 246° West  Level Estimated